sensor_id;sensor_type;location;lat;lon;timestamp;pressure;altitude;pressure_sealevel;temperature
25985;BMP280;66753;53.848;10.658;2023-07-08T00:02:40;102168.72;;;16.87
25985;BMP280;66753;53.848;10.658;2023-07-08T00:18:01;102152.78;;;16.63
25985;BMP280;66753;53.848;10.658;2023-07-08T00:33:14;102146.81;;;16.42
25985;BMP280;66753;53.848;10.658;2023-07-08T00:48:24;102155.81;;;16.22
25985;BMP280;66753;53.848;10.658;2023-07-08T01:03:43;102145.38;;;16.05
25985;BMP280;66753;53.848;10.658;2023-07-08T01:18:49;102143.84;;;15.92
25985;BMP280;66753;53.848;10.658;2023-07-08T01:33:55;102141.72;;;15.73
25985;BMP280;66753;53.848;10.658;2023-07-08T01:48:59;102140.09;;;15.57
25985;BMP280;66753;53.848;10.658;2023-07-08T02:04:02;102136.03;;;15.39
25985;BMP280;66753;53.848;10.658;2023-07-08T02:19:04;102133.25;;;15.23
25985;BMP280;66753;53.848;10.658;2023-07-08T02:34:06;102127.75;;;15.08
25985;BMP280;66753;53.848;10.658;2023-07-08T02:49:08;102134.03;;;14.91
25985;BMP280;66753;53.848;10.658;2023-07-08T03:04:10;102132.25;;;14.83
25985;BMP280;66753;53.848;10.658;2023-07-08T03:19:14;102131.69;;;14.78
25985;BMP280;66753;53.848;10.658;2023-07-08T03:34:18;102144.06;;;14.94
25985;BMP280;66753;53.848;10.658;2023-07-08T03:49:21;102173.59;;;15.10
25985;BMP280;66753;53.848;10.658;2023-07-08T04:04:25;102175.00;;;15.28
25985;BMP280;66753;53.848;10.658;2023-07-08T04:19:27;102189.97;;;15.77
25985;BMP280;66753;53.848;10.658;2023-07-08T04:34:29;102205.53;;;16.23
25985;BMP280;66753;53.848;10.658;2023-07-08T04:49:32;102197.72;;;16.69
25985;BMP280;66753;53.848;10.658;2023-07-08T05:04:34;102200.94;;;17.18
25985;BMP280;66753;53.848;10.658;2023-07-08T05:19:36;102204.31;;;17.77
25985;BMP280;66753;53.848;10.658;2023-07-08T05:34:41;102213.44;;;18.64
25985;BMP280;66753;53.848;10.658;2023-07-08T05:49:44;102215.84;;;19.58
25985;BMP280;66753;53.848;10.658;2023-07-08T06:04:46;102228.91;;;20.74
25985;BMP280;66753;53.848;10.658;2023-07-08T06:19:49;102235.94;;;21.94
25985;BMP280;66753;53.848;10.658;2023-07-08T06:34:53;102251.28;;;23.13
25985;BMP280;66753;53.848;10.658;2023-07-08T06:49:55;102244.41;;;24.12
25985;BMP280;66753;53.848;10.658;2023-07-08T07:04:57;102253.03;;;25.09
25985;BMP280;66753;53.848;10.658;2023-07-08T07:19:59;102242.81;;;25.87
25985;BMP280;66753;53.848;10.658;2023-07-08T07:35:01;102245.69;;;26.78
25985;BMP280;66753;53.848;10.658;2023-07-08T07:50:07;102241.44;;;27.20
25985;BMP280;66753;53.848;10.658;2023-07-08T08:05:10;102227.53;;;28.05
25985;BMP280;66753;53.848;10.658;2023-07-08T08:20:12;102222.38;;;28.70
25985;BMP280;66753;53.848;10.658;2023-07-08T08:35:14;102236.75;;;29.15
25985;BMP280;66753;53.848;10.658;2023-07-08T09:05:29;102206.75;;;28.99
25985;BMP280;66753;53.848;10.658;2023-07-08T09:20:32;102222.16;;;29.59
25985;BMP280;66753;53.848;10.658;2023-07-08T09:35:44;102222.06;;;30.00
25985;BMP280;66753;53.848;10.658;2023-07-08T09:50:50;102214.00;;;30.73
25985;BMP280;66753;53.848;10.658;2023-07-08T10:05:57;102211.84;;;30.81
25985;BMP280;66753;53.848;10.658;2023-07-08T10:37:04;102224.41;;;30.57
25985;BMP280;66753;53.848;10.658;2023-07-08T11:22:54;102213.19;;;30.64
25985;BMP280;66753;53.848;10.658;2023-07-08T11:38:02;102183.13;;;30.51
25985;BMP280;66753;53.848;10.658;2023-07-08T11:53:10;102179.97;;;31.05
25985;BMP280;66753;53.848;10.658;2023-07-08T12:08:14;102194.03;;;32.21
25985;BMP280;66753;53.848;10.658;2023-07-08T12:23:21;102175.38;;;32.52
25985;BMP280;66753;53.848;10.658;2023-07-08T12:38:29;102152.53;;;31.92
25985;BMP280;66753;53.848;10.658;2023-07-08T12:53:32;102142.41;;;31.80
25985;BMP280;66753;53.848;10.658;2023-07-08T13:08:35;102140.63;;;31.95
25985;BMP280;66753;53.848;10.658;2023-07-08T13:23:39;102146.59;;;31.85
25985;BMP280;66753;53.848;10.658;2023-07-08T13:38:41;102126.81;;;31.41
25985;BMP280;66753;53.848;10.658;2023-07-08T13:53:46;102115.69;;;30.97
25985;BMP280;66753;53.848;10.658;2023-07-08T14:09:03;102110.72;;;30.52
25985;BMP280;66753;53.848;10.658;2023-07-08T14:24:16;102101.13;;;31.08
25985;BMP280;66753;53.848;10.658;2023-07-08T14:39:19;102084.44;;;30.85
25985;BMP280;66753;53.848;10.658;2023-07-08T14:54:21;102072.69;;;29.90
25985;BMP280;66753;53.848;10.658;2023-07-08T15:09:24;102079.84;;;30.52
25985;BMP280;66753;53.848;10.658;2023-07-08T15:24:26;102069.97;;;30.85
25985;BMP280;66753;53.848;10.658;2023-07-08T23:47:51;102081.69;;;19.28
